sensor_id;sensor_type;location;lat;lon;timestamp;pressure;altitude;pressure_sealevel;temperature;humidity
8280;BME280;8335;42.646;23.380;2023-01-29T00:01:17;141646.25;;;0.08;100.00
8280;BME280;8335;42.646;23.380;2023-01-29T00:03:43;141635.13;;;0.03;100.00
8280;BME280;8335;42.646;23.380;2023-01-29T00:06:11;141644.97;;;0.07;100.00
8280;BME280;8335;42.646;23.380;2023-01-29T00:08:38;141635.13;;;0.03;100.00
8280;BME280;8335;42.646;23.380;2023-01-29T00:11:07;141646.25;;;0.08;100.00
8280;BME280;8335;42.646;23.380;2023-01-29T00:13:34;141662.22;;;0.14;100.00
8280;BME280;8335;42.646;23.380;2023-01-29T00:16:01;141681.97;;;0.22;100.00
8280;BME280;8335;42.646;23.380;2023-01-29T00:18:29;141680.72;;;0.22;100.00
8280;BME280;8335;42.646;23.380;2023-01-29T00:20:56;141695.47;;;0.28;100.00
8280;BME280;8335;42.646;23.380;2023-01-29T00:23:24;141704.13;;;0.32;100.00
8280;BME280;8335;42.646;23.380;2023-01-29T00:25:51;141706.59;;;0.33;100.00
8280;BME280;8335;42.646;23.380;2023-01-29T00:28:17;141711.50;;;0.35;100.00
8280;BME280;8335;42.646;23.380;2023-01-29T00:30:44;141729.97;;;0.42;100.00
8280;BME280;8335;42.646;23.380;2023-01-29T00:33:11;141707.81;;;0.33;100.00
8280;BME280;8335;42.646;23.380;2023-01-29T00:35:39;141704.13;;;0.32;100.00
8280;BME280;8335;42.646;23.380;2023-01-29T00:38:06;141737.41;;;0.45;100.00
8280;BME280;8335;42.646;23.380;2023-01-29T00:40:36;141734.94;;;0.44;100.00
8280;BME280;8335;42.646;23.380;2023-01-29T00:43:17;141748.47;;;0.50;100.00
8280;BME280;8335;42.646;23.380;2023-01-29T00:46:01;141760.81;;;0.55;100.00
8280;BME280;8335;42.646;23.380;2023-01-29T00:48:30;141759.56;;;0.54;100.00
8280;BME280;8335;42.646;23.380;2023-01-29T00:50:57;141762.03;;;0.55;100.00
8280;BME280;8335;42.646;23.380;2023-01-29T00:53:24;141737.41;;;0.45;100.00
8280;BME280;8335;42.646;23.380;2023-01-29T00:55:52;141728.75;;;0.42;100.00
8280;BME280;8335;42.646;23.380;2023-01-29T00:58:19;141704.13;;;0.32;100.00
8280;BME280;8335;42.646;23.380;2023-01-29T01:00:46;141704.13;;;0.32;100.00
8280;BME280;8335;42.646;23.380;2023-01-29T01:03:14;141683.19;;;0.23;100.00
8280;BME280;8335;42.646;23.380;2023-01-29T01:05:40;141675.78;;;0.20;100.00
8280;BME280;8335;42.646;23.380;2023-01-29T01:08:09;141654.84;;;0.11;100.00
8280;BME280;8335;42.646;23.380;2023-01-29T01:10:59;141722.59;;;0.39;100.00
8280;BME280;8335;42.646;23.380;2023-01-29T01:13:26;141733.72;;;0.44;100.00
8280;BME280;8335;42.646;23.380;2023-01-29T01:15:53;141728.75;;;0.42;100.00
8280;BME280;8335;42.646;23.380;2023-01-29T01:18:20;141727.53;;;0.41;100.00
8280;BME280;8335;42.646;23.380;2023-01-29T01:20:47;141647.47;;;0.08;100.00
8280;BME280;8335;42.646;23.380;2023-01-29T01:23:16;141701.66;;;0.31;100.00
8280;BME280;8335;42.646;23.380;2023-01-29T01:25:43;141664.72;;;0.15;100.00
8280;BME280;8335;42.646;23.380;2023-01-29T01:28:12;141742.31;;;0.47;100.00
8280;BME280;8335;42.646;23.380;2023-01-29T01:30:39;141716.47;;;0.37;100.00
8280;BME280;8335;42.646;23.380;2023-01-29T01:33:05;141638.81;;;0.05;100.00
8280;BME280;8335;42.646;23.380;2023-01-29T01:35:32;141705.34;;;0.32;100.00
8280;BME280;8335;42.646;23.380;2023-01-29T01:37:59;141718.91;;;0.38;100.00
8280;BME280;8335;42.646;23.380;2023-01-29T01:40:26;141704.13;;;0.32;100.00
8280;BME280;8335;42.646;23.380;2023-01-29T01:42:54;141711.50;;;0.35;100.00
8280;BME280;8335;42.646;23.380;2023-01-29T01:45:25;141702.91;;;0.31;100.00
8280;BME280;8335;42.646;23.380;2023-01-29T01:47:56;141660.97;;;0.14;100.00
8280;BME280;8335;42.646;23.380;2023-01-29T01:50:29;141686.88;;;0.24;100.00
8280;BME280;8335;42.646;23.380;2023-01-29T01:53:00;141632.69;;;0.02;100.00
8280;BME280;8335;42.646;23.380;2023-01-29T01:55:30;141646.25;;;0.08;100.00
8280;BME280;8335;42.646;23.380;2023-01-29T01:58:02;141670.84;;;0.18;100.00
8280;BME280;8335;42.646;23.380;2023-01-29T02:00:33;141677.00;;;0.20;100.00
8280;BME280;8335;42.646;23.380;2023-01-29T02:03:00;141646.25;;;0.08;100.00
8280;BME280;8335;42.646;23.380;2023-01-29T02:05:45;141657.28;;;0.12;100.00
8280;BME280;8335;42.646;23.380;2023-01-29T02:08:35;141670.84;;;0.18;100.00
8280;BME280;8335;42.646;23.380;2023-01-29T02:11:21;141679.47;;;0.21;100.00
8280;BME280;8335;42.646;23.380;2023-01-29T02:13:48;141684.41;;;0.23;100.00
8280;BME280;8335;42.646;23.380;2023-01-29T02:16:19;141684.41;;;0.23;100.00
8280;BME280;8335;42.646;23.380;2023-01-29T02:18:47;141667.16;;;0.16;100.00
8280;BME280;8335;42.646;23.380;2023-01-29T02:21:22;141660.97;;;0.14;100.00
8280;BME280;8335;42.646;23.380;2023-01-29T02:24:20;141644.97;;;0.07;100.00
8280;BME280;8335;42.646;23.380;2023-01-29T02:27:02;141637.59;;;0.04;100.00
8280;BME280;8335;42.646;23.380;2023-01-29T02:29:40;141647.47;;;0.08;100.00
8280;BME280;8335;42.646;23.380;2023-01-29T02:32:17;141551.38;;;-0.32;100.00
8280;BME280;8335;42.646;23.380;2023-01-29T02:34:56;141632.69;;;0.02;100.00
8280;BME280;8335;42.646;23.380;2023-01-29T02:37:49;141611.75;;;-0.07;100.00
8280;BME280;8335;42.646;23.380;2023-01-29T02:40:25;141621.56;;;-0.03;100.00
8280;BME280;8335;42.646;23.380;2023-01-29T02:43:05;141620.34;;;-0.03;100.00
8280;BME280;8335;42.646;23.380;2023-01-29T02:45:40;141446.72;;;-0.75;100.00
8280;BME280;8335;42.646;23.380;2023-01-29T02:48:14;141635.13;;;0.03;100.00
8280;BME280;8335;42.646;23.380;2023-01-29T02:50:45;141580.94;;;-0.19;100.00
8280;BME280;8335;42.646;23.380;2023-01-29T02:53:17;141616.66;;;-0.05;100.00
8280;BME280;8335;42.646;23.380;2023-01-29T02:55:51;141584.63;;;-0.18;100.00
8280;BME280;8335;42.646;23.380;2023-01-29T02:58:25;141600.63;;;-0.11;100.00
8280;BME280;8335;42.646;23.380;2023-01-29T03:00:59;141598.19;;;-0.12;100.00
8280;BME280;8335;42.646;23.380;2023-01-29T03:03:32;141599.41;;;-0.12;100.00
8280;BME280;8335;42.646;23.380;2023-01-29T03:06:05;141611.75;;;-0.07;100.00
8280;BME280;8335;42.646;23.380;2023-01-29T03:08:36;141594.50;;;-0.14;100.00
8280;BME280;8335;42.646;23.380;2023-01-29T03:11:11;141599.41;;;-0.12;100.00
8280;BME280;8335;42.646;23.380;2023-01-29T03:13:44;141596.97;;;-0.13;100.00
8280;BME280;8335;42.646;23.380;2023-01-29T03:16:19;141603.09;;;-0.10;100.00
8280;BME280;8335;42.646;23.380;2023-01-29T03:18:51;141578.47;;;-0.20;100.00
8280;BME280;8335;42.646;23.380;2023-01-29T03:21:23;141589.53;;;-0.16;100.00
8280;BME280;8335;42.646;23.380;2023-01-29T03:24:10;141615.44;;;-0.05;100.00
8280;BME280;8335;42.646;23.380;2023-01-29T03:26:58;141593.28;;;-0.14;100.00
8280;BME280;8335;42.646;23.380;2023-01-29T03:29:46;141604.31;;;-0.10;100.00
8280;BME280;8335;42.646;23.380;2023-01-29T03:32:32;141620.34;;;-0.03;100.00
8280;BME280;8335;42.646;23.380;2023-01-29T03:35:03;141636.34;;;0.04;100.00
8280;BME280;8335;42.646;23.380;2023-01-29T03:37:33;141625.25;;;-0.01;100.00
8280;BME280;8335;42.646;23.380;2023-01-29T03:40:03;141636.34;;;0.04;100.00
8280;BME280;8335;42.646;23.380;2023-01-29T03:42:41;141640.03;;;0.05;100.00
8280;BME280;8335;42.646;23.380;2023-01-29T03:45:14;141652.38;;;0.10;100.00
8280;BME280;8335;42.646;23.380;2023-01-29T03:47:50;141508.31;;;-0.49;100.00
8280;BME280;8335;42.646;23.380;2023-01-29T03:50:31;141669.63;;;0.17;100.00
8280;BME280;8335;42.646;23.380;2023-01-29T03:53:04;141599.41;;;-0.12;100.00
8280;BME280;8335;42.646;23.380;2023-01-29T03:55:39;141648.69;;;0.09;100.00
8280;BME280;8335;42.646;23.380;2023-01-29T03:58:15;141669.63;;;0.17;100.00
8280;BME280;8335;42.646;23.380;2023-01-29T04:00:52;141662.22;;;0.14;100.00
8280;BME280;8335;42.646;23.380;2023-01-29T04:03:24;141653.59;;;0.11;100.00
8280;BME280;8335;42.646;23.380;2023-01-29T04:05:54;141660.97;;;0.14;100.00
8280;BME280;8335;42.646;23.380;2023-01-29T04:08:32;141663.47;;;0.15;100.00
8280;BME280;8335;42.646;23.380;2023-01-29T04:11:04;141633.91;;;0.03;100.00
8280;BME280;8335;42.646;23.380;2023-01-29T04:13:32;141625.25;;;-0.01;100.00
8280;BME280;8335;42.646;23.380;2023-01-29T04:16:01;141627.75;;;0.00;100.00
8280;BME280;8335;42.646;23.380;2023-01-29T04:18:33;141652.38;;;0.10;100.00
8280;BME280;8335;42.646;23.380;2023-01-29T04:21:00;141637.59;;;0.04;100.00
8280;BME280;8335;42.646;23.380;2023-01-29T04:23:27;141637.59;;;0.04;100.00
8280;BME280;8335;42.646;23.380;2023-01-29T04:26:17;141636.34;;;0.04;100.00
8280;BME280;8335;42.646;23.380;2023-01-29T04:28:54;141636.34;;;0.04;100.00
8280;BME280;8335;42.646;23.380;2023-01-29T04:31:28;141642.50;;;0.06;100.00
8280;BME280;8335;42.646;23.380;2023-01-29T04:34:05;141651.16;;;0.10;100.00
8280;BME280;8335;42.646;23.380;2023-01-29T04:36:45;141647.47;;;0.08;100.00
8280;BME280;8335;42.646;23.380;2023-01-29T04:39:23;141641.28;;;0.06;100.00
8280;BME280;8335;42.646;23.380;2023-01-29T04:41:53;141649.94;;;0.09;100.00
8280;BME280;8335;42.646;23.380;2023-01-29T04:44:30;141651.16;;;0.10;100.00
8280;BME280;8335;42.646;23.380;2023-01-29T04:47:05;141657.28;;;0.12;100.00
8280;BME280;8335;42.646;23.380;2023-01-29T04:49:42;141626.47;;;-0.01;100.00
8280;BME280;8335;42.646;23.380;2023-01-29T04:52:16;141603.09;;;-0.10;100.00
8280;BME280;8335;42.646;23.380;2023-01-29T04:54:54;141627.75;;;0.00;100.00
8280;BME280;8335;42.646;23.380;2023-01-29T04:57:28;141598.19;;;-0.12;100.00
8280;BME280;8335;42.646;23.380;2023-01-29T05:00:03;141582.16;;;-0.19;100.00
8280;BME280;8335;42.646;23.380;2023-01-29T05:02:36;141595.72;;;-0.13;100.00
8280;BME280;8335;42.646;23.380;2023-01-29T05:05:06;141588.31;;;-0.16;100.00
8280;BME280;8335;42.646;23.380;2023-01-29T05:07:36;141572.31;;;-0.23;100.00
8280;BME280;8335;42.646;23.380;2023-01-29T05:10:04;141588.31;;;-0.16;100.00
8280;BME280;8335;42.646;23.380;2023-01-29T05:12:32;141585.84;;;-0.17;100.00
8280;BME280;8335;42.646;23.380;2023-01-29T05:15:02;141596.97;;;-0.13;100.00
8280;BME280;8335;42.646;23.380;2023-01-29T05:17:30;141614.19;;;-0.06;100.00
8280;BME280;8335;42.646;23.380;2023-01-29T05:19:57;141610.50;;;-0.07;100.00
8280;BME280;8335;42.646;23.380;2023-01-29T05:22:25;141617.88;;;-0.04;100.00
8280;BME280;8335;42.646;23.380;2023-01-29T05:24:52;141621.56;;;-0.03;100.00
8280;BME280;8335;42.646;23.380;2023-01-29T05:27:21;141622.81;;;-0.02;100.00
8280;BME280;8335;42.646;23.380;2023-01-29T05:30:08;141582.16;;;-0.19;100.00
8280;BME280;8335;42.646;23.380;2023-01-29T05:32:35;141612.97;;;-0.06;100.00
8280;BME280;8335;42.646;23.380;2023-01-29T05:35:04;141605.56;;;-0.09;100.00
8280;BME280;8335;42.646;23.380;2023-01-29T05:37:32;141627.75;;;0.00;100.00
8280;BME280;8335;42.646;23.380;2023-01-29T05:39:59;141632.69;;;0.02;100.00
8280;BME280;8335;42.646;23.380;2023-01-29T05:42:26;141641.28;;;0.06;100.00
8280;BME280;8335;42.646;23.380;2023-01-29T05:44:53;141621.56;;;-0.03;100.00
8280;BME280;8335;42.646;23.380;2023-01-29T05:47:20;141643.72;;;0.07;100.00
8280;BME280;8335;42.646;23.380;2023-01-29T05:49:47;141638.81;;;0.05;100.00
8280;BME280;8335;42.646;23.380;2023-01-29T05:52:13;141622.81;;;-0.02;100.00
8280;BME280;8335;42.646;23.380;2023-01-29T05:54:41;141630.22;;;0.01;100.00
8280;BME280;8335;42.646;23.380;2023-01-29T05:57:08;141632.69;;;0.02;100.00
8280;BME280;8335;42.646;23.380;2023-01-29T05:59:35;141632.69;;;0.02;100.00
8280;BME280;8335;42.646;23.380;2023-01-29T06:02:02;141627.75;;;0.00;100.00
8280;BME280;8335;42.646;23.380;2023-01-29T06:04:29;141629.00;;;0.01;100.00
8280;BME280;8335;42.646;23.380;2023-01-29T06:06:55;141636.34;;;0.04;100.00
8280;BME280;8335;42.646;23.380;2023-01-29T06:09:22;141631.44;;;0.02;100.00
8280;BME280;8335;42.646;23.380;2023-01-29T06:11:50;141644.97;;;0.07;100.00
8280;BME280;8335;42.646;23.380;2023-01-29T06:14:17;141633.91;;;0.03;100.00
8280;BME280;8335;42.646;23.380;2023-01-29T06:16:44;141637.59;;;0.04;100.00
8280;BME280;8335;42.646;23.380;2023-01-29T06:19:10;141653.59;;;0.11;100.00
8280;BME280;8335;42.646;23.380;2023-01-29T06:21:37;141652.38;;;0.10;100.00
8280;BME280;8335;42.646;23.380;2023-01-29T06:24:05;141672.09;;;0.18;100.00
8280;BME280;8335;42.646;23.380;2023-01-29T06:26:31;141677.00;;;0.20;100.00
8280;BME280;8335;42.646;23.380;2023-01-29T06:28:59;141670.84;;;0.18;100.00
8280;BME280;8335;42.646;23.380;2023-01-29T06:31:26;141690.56;;;0.26;100.00
8280;BME280;8335;42.646;23.380;2023-01-29T06:33:53;141709.03;;;0.34;100.00
8280;BME280;8335;42.646;23.380;2023-01-29T06:36:20;141694.25;;;0.27;100.00
8280;BME280;8335;42.646;23.380;2023-01-29T06:38:46;141697.97;;;0.29;100.00
8280;BME280;8335;42.646;23.380;2023-01-29T06:41:16;141694.25;;;0.27;100.00
8280;BME280;8335;42.646;23.380;2023-01-29T06:43:43;141717.69;;;0.37;100.00
8280;BME280;8335;42.646;23.380;2023-01-29T06:46:12;141716.47;;;0.37;100.00
8280;BME280;8335;42.646;23.380;2023-01-29T06:48:39;141718.91;;;0.38;100.00
8280;BME280;8335;42.646;23.380;2023-01-29T06:51:07;141727.53;;;0.41;100.00
8280;BME280;8335;42.646;23.380;2023-01-29T06:53:35;141722.59;;;0.39;100.00
8280;BME280;8335;42.646;23.380;2023-01-29T06:56:02;141743.53;;;0.48;100.00
8280;BME280;8335;42.646;23.380;2023-01-29T06:58:29;141764.50;;;0.57;100.00
8280;BME280;8335;42.646;23.380;2023-01-29T07:01:02;141733.72;;;0.44;100.00
8280;BME280;8335;42.646;23.380;2023-01-29T07:03:30;141764.50;;;0.57;100.00
8280;BME280;8335;42.646;23.380;2023-01-29T07:05:57;141787.94;;;0.66;100.00
8280;BME280;8335;42.646;23.380;2023-01-29T07:08:24;141803.97;;;0.73;100.00
8280;BME280;8335;42.646;23.380;2023-01-29T07:10:52;141808.88;;;0.75;100.00
8280;BME280;8335;42.646;23.380;2023-01-29T07:13:18;141802.72;;;0.72;100.00
8280;BME280;8335;42.646;23.380;2023-01-29T07:15:45;141800.22;;;0.71;100.00
8280;BME280;8335;42.646;23.380;2023-01-29T07:18:12;141818.75;;;0.79;100.00
8280;BME280;8335;42.646;23.380;2023-01-29T07:20:41;141800.22;;;0.71;100.00
8280;BME280;8335;42.646;23.380;2023-01-29T07:23:10;141795.31;;;0.69;100.00
8280;BME280;8335;42.646;23.380;2023-01-29T07:25:37;141805.19;;;0.73;100.00
8280;BME280;8335;42.646;23.380;2023-01-29T07:28:04;141818.75;;;0.79;100.00
8280;BME280;8335;42.646;23.380;2023-01-29T07:30:31;141815.03;;;0.77;100.00
8280;BME280;8335;42.646;23.380;2023-01-29T07:33:01;141834.75;;;0.86;100.00
8280;BME280;8335;42.646;23.380;2023-01-29T07:35:28;141834.75;;;0.86;100.00
8280;BME280;8335;42.646;23.380;2023-01-29T07:37:57;141876.69;;;1.03;100.00
8280;BME280;8335;42.646;23.380;2023-01-29T07:40:23;141895.19;;;1.10;100.00
8280;BME280;8335;42.646;23.380;2023-01-29T07:42:50;141870.53;;;1.00;100.00
8280;BME280;8335;42.646;23.380;2023-01-29T07:45:17;141908.75;;;1.16;100.00
8280;BME280;8335;42.646;23.380;2023-01-29T07:47:44;141917.38;;;1.20;100.00
8280;BME280;8335;42.646;23.380;2023-01-29T07:50:10;141939.59;;;1.29;100.00
8280;BME280;8335;42.646;23.380;2023-01-29T07:52:37;141944.50;;;1.31;100.00
8280;BME280;8335;42.646;23.380;2023-01-29T07:55:06;141946.97;;;1.32;100.00
8280;BME280;8335;42.646;23.380;2023-01-29T07:57:33;141928.47;;;1.24;100.00
8280;BME280;8335;42.646;23.380;2023-01-29T08:00:00;141907.53;;;1.16;100.00
8280;BME280;8335;42.646;23.380;2023-01-29T08:02:26;141866.81;;;0.99;100.00
8280;BME280;8335;42.646;23.380;2023-01-29T08:04:53;141877.91;;;1.03;100.00
8280;BME280;8335;42.646;23.380;2023-01-29T08:07:20;141892.72;;;1.09;100.00
8280;BME280;8335;42.646;23.380;2023-01-29T08:09:47;141876.69;;;1.03;100.00
8280;BME280;8335;42.646;23.380;2023-01-29T08:12:15;141871.78;;;1.01;100.00
8280;BME280;8335;42.646;23.380;2023-01-29T08:14:42;141886.53;;;1.07;100.00
8280;BME280;8335;42.646;23.380;2023-01-29T08:17:10;141895.19;;;1.10;100.00
8280;BME280;8335;42.646;23.380;2023-01-29T08:19:37;141907.53;;;1.16;100.00
8280;BME280;8335;42.646;23.380;2023-01-29T08:22:04;141921.06;;;1.21;100.00
8280;BME280;8335;42.646;23.380;2023-01-29T08:24:31;141934.63;;;1.27;100.00
8280;BME280;8335;42.646;23.380;2023-01-29T08:26:58;141950.66;;;1.33;100.00
8280;BME280;8335;42.646;23.380;2023-01-29T08:29:26;141950.66;;;1.33;100.00
8280;BME280;8335;42.646;23.380;2023-01-29T08:31:53;141963.00;;;1.38;100.00
8280;BME280;8335;42.646;23.380;2023-01-29T08:34:20;141971.63;;;1.42;100.00
8280;BME280;8335;42.646;23.380;2023-01-29T08:36:47;141982.72;;;1.47;100.00
8280;BME280;8335;42.646;23.380;2023-01-29T08:39:13;142003.69;;;1.55;100.00
8280;BME280;8335;42.646;23.380;2023-01-29T08:41:40;141981.50;;;1.46;100.00
8280;BME280;8335;42.646;23.380;2023-01-29T08:44:07;141981.50;;;1.46;100.00
8280;BME280;8335;42.646;23.380;2023-01-29T08:46:35;141981.50;;;1.46;100.00
8280;BME280;8335;42.646;23.380;2023-01-29T08:49:05;141959.31;;;1.37;100.00
8280;BME280;8335;42.646;23.380;2023-01-29T08:51:31;141965.47;;;1.40;100.00
8280;BME280;8335;42.646;23.380;2023-01-29T08:53:58;141961.78;;;1.38;100.00
8280;BME280;8335;42.646;23.380;2023-01-29T08:56:25;141969.16;;;1.41;100.00
8280;BME280;8335;42.646;23.380;2023-01-29T08:58:52;142002.47;;;1.55;100.00
8280;BME280;8335;42.646;23.380;2023-01-29T09:01:18;142037.00;;;1.69;100.00
8280;BME280;8335;42.646;23.380;2023-01-29T09:03:47;142043.19;;;1.72;100.00
8280;BME280;8335;42.646;23.380;2023-01-29T09:06:14;142000.00;;;1.54;100.00
8280;BME280;8335;42.646;23.380;2023-01-29T09:08:41;142046.91;;;1.73;100.00
8280;BME280;8335;42.646;23.380;2023-01-29T09:11:08;142039.47;;;1.70;100.00
8280;BME280;8335;42.646;23.380;2023-01-29T09:13:35;142028.41;;;1.65;100.00
8280;BME280;8335;42.646;23.380;2023-01-29T09:16:03;141967.94;;;1.41;100.00
8280;BME280;8335;42.646;23.380;2023-01-29T09:18:30;141985.19;;;1.48;100.00
8280;BME280;8335;42.646;23.380;2023-01-29T09:20:59;142040.69;;;1.71;100.00
8280;BME280;8335;42.646;23.380;2023-01-29T09:23:27;142061.72;;;1.79;100.00
8280;BME280;8335;42.646;23.380;2023-01-29T09:25:54;142025.94;;;1.64;100.00
8280;BME280;8335;42.646;23.380;2023-01-29T09:28:21;142016.03;;;1.60;100.00
8280;BME280;8335;42.646;23.380;2023-01-29T09:30:48;142027.16;;;1.65;100.00
8280;BME280;8335;42.646;23.380;2023-01-29T09:33:15;141997.53;;;1.53;100.00
8280;BME280;8335;42.646;23.380;2023-01-29T09:35:43;141972.84;;;1.43;100.00
8280;BME280;8335;42.646;23.380;2023-01-29T09:38:12;141988.88;;;1.49;100.00
8280;BME280;8335;42.646;23.380;2023-01-29T09:40:45;142002.47;;;1.55;100.00
8280;BME280;8335;42.646;23.380;2023-01-29T09:43:19;142037.00;;;1.69;100.00
8280;BME280;8335;42.646;23.380;2023-01-29T09:45:52;142027.16;;;1.65;100.00
8280;BME280;8335;42.646;23.380;2023-01-29T09:48:22;142066.63;;;1.81;100.00
8280;BME280;8335;42.646;23.380;2023-01-29T09:50:53;142012.34;;;1.59;100.00
8280;BME280;8335;42.646;23.380;2023-01-29T09:53:29;142051.81;;;1.75;100.00
8280;BME280;8335;42.646;23.380;2023-01-29T09:56:03;142067.88;;;1.82;100.00
8280;BME280;8335;42.646;23.380;2023-01-29T09:58:32;142090.06;;;1.91;100.00
8280;BME280;8335;42.646;23.380;2023-01-29T10:01:07;142080.22;;;1.87;100.00
8280;BME280;8335;42.646;23.380;2023-01-29T10:06:37;142104.88;;;1.97;100.00
8280;BME280;8335;42.646;23.380;2023-01-29T10:09:25;142111.03;;;2.00;100.00
8280;BME280;8335;42.646;23.380;2023-01-29T10:12:11;142130.81;;;2.08;100.00
8280;BME280;8335;42.646;23.380;2023-01-29T10:14:51;142141.88;;;2.12;100.00
8280;BME280;8335;42.646;23.380;2023-01-29T10:17:35;142118.47;;;2.03;100.00
8280;BME280;8335;42.646;23.380;2023-01-29T10:20:35;142109.78;;;1.99;100.00
8280;BME280;8335;42.646;23.380;2023-01-29T10:23:13;142064.16;;;1.80;100.00
8280;BME280;8335;42.646;23.380;2023-01-29T10:25:44;141991.41;;;1.50;100.00
8280;BME280;8335;42.646;23.380;2023-01-29T10:28:16;142048.13;;;1.74;100.00
8280;BME280;8335;42.646;23.380;2023-01-29T10:30:47;142060.47;;;1.79;100.00
8280;BME280;8335;42.646;23.380;2023-01-29T10:33:18;141970.38;;;1.42;100.00
8280;BME280;8335;42.646;23.380;2023-01-29T10:35:49;142087.59;;;1.90;100.00
8280;BME280;8335;42.646;23.380;2023-01-29T10:38:27;142064.16;;;1.80;100.00
8280;BME280;8335;42.646;23.380;2023-01-29T10:41:09;142107.34;;;1.98;100.00
8280;BME280;8335;42.646;23.380;2023-01-29T10:43:51;142103.63;;;1.97;100.00
8280;BME280;8335;42.646;23.380;2023-01-29T10:46:29;142081.44;;;1.87;100.00
8280;BME280;8335;42.646;23.380;2023-01-29T10:49:09;142071.56;;;1.83;100.00
8280;BME280;8335;42.646;23.380;2023-01-29T10:51:54;142075.25;;;1.85;100.00
8280;BME280;8335;42.646;23.380;2023-01-29T10:54:38;142074.00;;;1.84;100.00
8280;BME280;8335;42.646;23.380;2023-01-29T10:57:15;142051.81;;;1.75;100.00
8280;BME280;8335;42.646;23.380;2023-01-29T10:59:56;142048.13;;;1.74;100.00
8280;BME280;8335;42.646;23.380;2023-01-29T11:02:27;142056.75;;;1.77;100.00
8280;BME280;8335;42.646;23.380;2023-01-29T11:04:53;142034.53;;;1.68;100.00
8280;BME280;8335;42.646;23.380;2023-01-29T11:07:21;142062.94;;;1.80;100.00
8280;BME280;8335;42.646;23.380;2023-01-29T11:09:52;142083.91;;;1.88;100.00
8280;BME280;8335;42.646;23.380;2023-01-29T11:12:25;142087.59;;;1.90;100.00
8280;BME280;8335;42.646;23.380;2023-01-29T11:14:59;142090.06;;;1.91;100.00
8280;BME280;8335;42.646;23.380;2023-01-29T11:17:28;142067.88;;;1.82;100.00
8280;BME280;8335;42.646;23.380;2023-01-29T11:19:55;142066.63;;;1.81;100.00
8280;BME280;8335;42.646;23.380;2023-01-29T11:22:23;142037.00;;;1.69;100.00
8280;BME280;8335;42.646;23.380;2023-01-29T11:25:07;142096.25;;;1.93;100.00
8280;BME280;8335;42.646;23.380;2023-01-29T11:27:40;142124.63;;;2.05;100.00
8280;BME280;8335;42.646;23.380;2023-01-29T11:30:14;142134.50;;;2.09;100.00
8280;BME280;8335;42.646;23.380;2023-01-29T11:32:43;142148.09;;;2.15;100.00
8280;BME280;8335;42.646;23.380;2023-01-29T11:35:21;142098.72;;;1.95;100.00
8280;BME280;8335;42.646;23.380;2023-01-29T11:37:48;142127.06;;;2.06;100.00
8280;BME280;8335;42.646;23.380;2023-01-29T11:40:34;142113.53;;;2.01;100.00
8280;BME280;8335;42.646;23.380;2023-01-29T11:43:19;142128.31;;;2.07;100.00
8280;BME280;8335;42.646;23.380;2023-01-29T11:45:47;142172.75;;;2.25;100.00
8280;BME280;8335;42.646;23.380;2023-01-29T11:48:16;142202.41;;;2.37;100.00
8280;BME280;8335;42.646;23.380;2023-01-29T11:50:50;142193.72;;;2.34;99.52
8280;BME280;8335;42.646;23.380;2023-01-29T11:53:34;142283.84;;;2.71;98.61
8280;BME280;8335;42.646;23.380;2023-01-29T11:56:04;142334.50;;;2.92;98.36
8280;BME280;8335;42.646;23.380;2023-01-29T11:58:34;142338.22;;;2.93;97.62
8280;BME280;8335;42.646;23.380;2023-01-29T12:01:02;142372.81;;;3.08;96.90
8280;BME280;8335;42.646;23.380;2023-01-29T12:03:35;142362.91;;;3.03;97.31
8280;BME280;8335;42.646;23.380;2023-01-29T12:06:07;142408.63;;;3.22;96.18
8280;BME280;8335;42.646;23.380;2023-01-29T12:08:39;142404.88;;;3.21;95.24
8280;BME280;8335;42.646;23.380;2023-01-29T12:11:07;142377.75;;;3.10;95.83
8280;BME280;8335;42.646;23.380;2023-01-29T12:13:36;142338.22;;;2.93;95.73
8280;BME280;8335;42.646;23.380;2023-01-29T12:16:16;142299.91;;;2.78;95.79
8280;BME280;8335;42.646;23.380;2023-01-29T12:18:49;142306.13;;;2.80;96.29
8280;BME280;8335;42.646;23.380;2023-01-29T12:21:21;142297.44;;;2.76;96.99
8280;BME280;8335;42.646;23.380;2023-01-29T12:23:55;142315.97;;;2.84;97.24
8280;BME280;8335;42.646;23.380;2023-01-29T12:26:26;142309.81;;;2.82;96.64
8280;BME280;8335;42.646;23.380;2023-01-29T12:29:11;142330.78;;;2.90;96.75
8280;BME280;8335;42.646;23.380;2023-01-29T12:31:47;142301.13;;;2.78;96.09
8280;BME280;8335;42.646;23.380;2023-01-29T12:34:18;142267.78;;;2.64;98.06
8280;BME280;8335;42.646;23.380;2023-01-29T12:36:48;142251.78;;;2.58;98.70
8280;BME280;8335;42.646;23.380;2023-01-29T12:39:19;142233.28;;;2.50;99.12
8280;BME280;8335;42.646;23.380;2023-01-29T12:41:51;142202.41;;;2.37;98.75
8280;BME280;8335;42.646;23.380;2023-01-29T12:44:24;142301.13;;;2.78;98.30
8280;BME280;8335;42.646;23.380;2023-01-29T12:46:57;142319.66;;;2.86;97.15
8280;BME280;8335;42.646;23.380;2023-01-29T12:49:27;142320.94;;;2.86;96.02
8280;BME280;8335;42.646;23.380;2023-01-29T12:52:00;142312.25;;;2.83;96.11
8280;BME280;8335;42.646;23.380;2023-01-29T12:54:35;142267.78;;;2.64;97.74
8280;BME280;8335;42.646;23.380;2023-01-29T12:57:08;142259.16;;;2.61;97.36
8280;BME280;8335;42.646;23.380;2023-01-29T12:59:40;142270.31;;;2.65;97.60
8280;BME280;8335;42.646;23.380;2023-01-29T13:02:21;142285.09;;;2.71;98.47
8280;BME280;8335;42.646;23.380;2023-01-29T13:04:56;142253.03;;;2.58;97.28
8280;BME280;8335;42.646;23.380;2023-01-29T13:07:27;142276.47;;;2.68;96.68
8280;BME280;8335;42.646;23.380;2023-01-29T13:10:02;142280.16;;;2.69;96.92
8280;BME280;8335;42.646;23.380;2023-01-29T13:12:30;142249.28;;;2.57;96.96
8280;BME280;8335;42.646;23.380;2023-01-29T13:15:04;142145.59;;;2.14;97.33
8280;BME280;8335;42.646;23.380;2023-01-29T13:17:35;142246.81;;;2.56;98.32
8280;BME280;8335;42.646;23.380;2023-01-29T13:20:12;142256.72;;;2.60;97.46
8280;BME280;8335;42.646;23.380;2023-01-29T13:22:42;142245.59;;;2.55;97.04
8280;BME280;8335;42.646;23.380;2023-01-29T13:25:14;142150.56;;;2.16;97.11